createdAt,value
2022-08-16T00:00:20.149Z,23.80
2022-08-16T00:02:50.161Z,23.70
2022-08-16T00:05:20.257Z,23.70
2022-08-16T00:07:47.516Z,23.60
2022-08-16T00:10:21.077Z,23.60
2022-08-16T00:12:50.001Z,23.60
2022-08-16T00:15:24.013Z,23.60
2022-08-16T00:17:56.896Z,23.60
2022-08-16T00:20:25.066Z,23.60
2022-08-16T00:22:52.749Z,23.50
2022-08-16T00:26:36.037Z,23.50
2022-08-16T00:28:11.908Z,23.50
2022-08-16T00:30:39.538Z,23.60
2022-08-16T00:33:07.281Z,23.60
2022-08-16T00:35:37.271Z,23.60
2022-08-16T00:38:40.224Z,23.60
2022-08-16T00:40:54.568Z,23.70
2022-08-16T00:43:25.279Z,23.70
2022-08-16T00:46:32.858Z,23.70
2022-08-16T00:49:01.501Z,23.70
2022-08-16T00:51:29.768Z,23.80
2022-08-16T00:53:59.904Z,23.80
2022-08-16T00:56:57.076Z,23.80
2022-08-16T00:59:21.113Z,23.80
2022-08-16T01:01:51.710Z,23.80
2022-08-16T01:04:29.724Z,23.80
2022-08-16T01:07:02.866Z,23.90
2022-08-16T01:09:33.573Z,23.80
2022-08-16T01:12:01.918Z,23.80
2022-08-16T01:14:34.135Z,23.80
2022-08-16T01:17:03.162Z,23.80
2022-08-16T01:19:44.216Z,23.70
2022-08-16T01:22:58.860Z,23.60
2022-08-16T01:25:34.364Z,23.50
2022-08-16T01:28:08.273Z,23.40
2022-08-16T01:30:49.870Z,23.30
2022-08-16T01:33:19.661Z,23.30
2022-08-16T01:36:01.257Z,23.30
2022-08-16T01:38:32.503Z,23.20
2022-08-16T01:41:29.597Z,23.20
2022-08-16T01:44:01.086Z,23.20
2022-08-16T01:46:45.356Z,23.20
2022-08-16T01:49:14.659Z,23.20
2022-08-16T01:51:44.658Z,23.10
2022-08-16T01:54:13.379Z,23.10
2022-08-16T01:56:42.748Z,23.10
2022-08-16T01:59:16.979Z,23.00
2022-08-16T02:01:49.802Z,23.00
2022-08-16T02:04:48.090Z,23.00
2022-08-16T02:07:25.467Z,23.00
2022-08-16T02:09:58.612Z,23.00
2022-08-16T02:12:51.585Z,23.00
2022-08-16T02:15:25.042Z,22.90
2022-08-16T02:17:54.002Z,22.90
2022-08-16T02:20:26.153Z,22.90
2022-08-16T02:22:58.898Z,23.00
2022-08-16T02:25:51.747Z,23.00
2022-08-16T02:28:17.268Z,22.90
2022-08-16T02:30:50.583Z,22.90
2022-08-16T02:33:19.922Z,22.90
2022-08-16T02:35:55.450Z,22.90
2022-08-16T02:38:27.288Z,22.90
2022-08-16T02:40:55.498Z,22.90
2022-08-16T02:43:28.076Z,22.90
2022-08-16T02:45:59.074Z,22.90
2022-08-16T02:48:30.827Z,22.90
2022-08-16T02:51:06.636Z,22.90
2022-08-16T02:53:52.367Z,22.90
2022-08-16T02:56:20.385Z,22.90
2022-08-16T02:58:50.214Z,22.90
2022-08-16T03:01:24.973Z,22.90
2022-08-16T03:04:29.668Z,22.90
2022-08-16T03:06:56.631Z,22.90
2022-08-16T03:09:25.205Z,22.90
2022-08-16T03:11:56.175Z,22.90
2022-08-16T03:14:24.605Z,22.90
2022-08-16T03:16:59.117Z,22.80
2022-08-16T03:19:48.433Z,22.80
2022-08-16T03:22:19.447Z,22.80
2022-08-16T03:24:57.647Z,22.80
2022-08-16T03:27:25.308Z,22.70
2022-08-16T03:30:00.197Z,22.70
2022-08-16T03:32:27.185Z,22.70
2022-08-16T03:34:54.407Z,22.70
2022-08-16T03:37:21.446Z,22.70
2022-08-16T03:39:48.426Z,22.70
2022-08-16T03:42:23.587Z,22.80
2022-08-16T03:44:50.597Z,22.70
2022-08-16T03:47:19.814Z,22.80
2022-08-16T03:49:52.291Z,22.80
2022-08-16T03:52:23.931Z,22.80
2022-08-16T03:54:59.495Z,22.80
2022-08-16T03:57:32.006Z,22.80
2022-08-16T04:00:20.663Z,22.90
2022-08-16T04:03:08.783Z,23.20
2022-08-16T04:05:47.473Z,23.40
2022-08-16T04:08:23.037Z,23.60
2022-08-16T04:10:52.873Z,23.70
2022-08-16T04:14:01.515Z,23.90
2022-08-16T04:16:08.470Z,24.00
2022-08-16T04:18:39.031Z,23.90
2022-08-16T04:21:13.183Z,23.80
2022-08-16T04:23:56.636Z,23.60
2022-08-16T04:26:23.695Z,23.50
2022-08-16T04:28:53.559Z,23.50
2022-08-16T04:31:24.806Z,23.50
2022-08-16T04:33:53.271Z,23.50
2022-08-16T04:36:20.894Z,23.60
2022-08-16T04:38:50.079Z,23.60
2022-08-16T04:41:19.455Z,23.70
2022-08-16T04:44:00.707Z,23.70
2022-08-16T04:47:00.336Z,23.90
2022-08-16T04:49:15.106Z,24.00
2022-08-16T04:51:42.147Z,24.10
2022-08-16T04:54:10.483Z,24.40
2022-08-16T04:56:42.821Z,25.20
2022-08-16T04:59:13.332Z,25.70
2022-08-16T05:01:57.810Z,26.20
2022-08-16T05:04:26.265Z,26.30
2022-08-16T05:06:57.645Z,26.30
2022-08-16T05:09:24.586Z,26.20
2022-08-16T05:11:51.744Z,26.10
2022-08-16T05:14:20.307Z,25.90
2022-08-16T05:17:06.152Z,25.80
2022-08-16T05:19:35.958Z,25.70
2022-08-16T05:22:03.748Z,25.70
2022-08-16T05:24:31.795Z,25.70
2022-08-16T05:26:58.792Z,25.50
2022-08-16T05:29:56.849Z,25.50
2022-08-16T05:32:33.829Z,25.50
2022-08-16T05:34:59.768Z,25.50
2022-08-16T05:37:26.911Z,25.50
2022-08-16T05:40:16.246Z,25.50
2022-08-16T05:42:45.998Z,25.50
2022-08-16T05:45:13.550Z,25.50
2022-08-16T05:47:48.999Z,25.60
2022-08-16T05:50:28.214Z,25.60
2022-08-16T05:53:01.644Z,25.70
2022-08-16T05:55:28.638Z,25.70
2022-08-16T05:57:57.123Z,25.70
2022-08-16T06:00:25.314Z,25.80
2022-08-16T06:02:52.901Z,25.70
2022-08-16T06:05:21.242Z,25.70
2022-08-16T06:07:59.063Z,25.70
2022-08-16T06:10:33.293Z,25.70
2022-08-16T06:13:00.903Z,25.80
2022-08-16T06:15:28.333Z,25.80
2022-08-16T06:18:00.602Z,25.90
2022-08-16T06:20:35.839Z,26.00
2022-08-16T06:23:16.845Z,26.10
2022-08-16T06:25:52.870Z,26.20
2022-08-16T06:28:34.846Z,26.20
2022-08-16T06:31:04.813Z,26.30
2022-08-16T06:33:41.770Z,26.30
2022-08-16T06:36:13.913Z,26.40
2022-08-16T06:38:55.818Z,26.50
2022-08-16T06:41:24.345Z,26.50
2022-08-16T06:43:55.077Z,26.50
2022-08-16T06:46:32.043Z,26.60
2022-08-16T06:49:00.644Z,26.60
2022-08-16T06:51:46.406Z,26.70
2022-08-16T06:54:16.373Z,26.70
2022-08-16T06:56:43.592Z,26.90
2022-08-16T06:59:10.873Z,26.90
2022-08-16T07:01:45.152Z,27.00
2022-08-16T07:04:33.107Z,27.10
2022-08-16T07:07:03.465Z,27.00
2022-08-16T07:09:30.741Z,26.90
2022-08-16T07:12:03.697Z,26.80
2022-08-16T07:14:33.207Z,26.80
2022-08-16T07:17:00.611Z,26.90
2022-08-16T07:19:33.699Z,26.90
2022-08-16T07:22:38.359Z,27.00
2022-08-16T07:25:14.262Z,27.00
2022-08-16T07:27:43.217Z,27.00
2022-08-16T07:30:45.139Z,27.10
2022-08-16T07:33:02.353Z,27.10
2022-08-16T07:35:29.723Z,27.00
2022-08-16T07:37:56.663Z,27.10
2022-08-16T07:40:37.226Z,27.00
2022-08-16T07:43:11.129Z,27.10
2022-08-16T07:45:38.634Z,27.20
2022-08-16T07:48:13.022Z,27.30
2022-08-16T07:50:55.545Z,27.50
2022-08-16T07:53:28.901Z,27.80
2022-08-16T07:55:56.871Z,28.20
2022-08-16T07:58:35.070Z,28.60
2022-08-16T08:01:10.729Z,28.90
2022-08-16T08:03:47.648Z,29.20
2022-08-16T08:06:24.709Z,29.60
2022-08-16T08:08:59.066Z,29.80
2022-08-16T08:11:28.560Z,30.10
2022-08-16T08:14:03.311Z,30.20
2022-08-16T08:16:32.516Z,30.40
2022-08-16T08:19:02.384Z,30.50
2022-08-16T08:22:01.068Z,30.50
2022-08-16T08:24:20.505Z,30.50
2022-08-16T08:26:49.881Z,30.60
2022-08-16T08:29:23.148Z,30.40
2022-08-16T08:31:53.727Z,30.20
2022-08-16T08:34:23.287Z,29.90
2022-08-16T08:36:54.370Z,29.80
2022-08-16T08:39:26.611Z,29.70
2022-08-16T08:42:00.034Z,29.60
2022-08-16T08:44:32.307Z,29.50
2022-08-16T08:47:10.973Z,29.50
2022-08-16T08:49:55.616Z,29.50
2022-08-16T08:52:34.754Z,29.60
2022-08-16T08:55:10.732Z,29.50
2022-08-16T08:57:47.118Z,29.40
2022-08-16T09:00:21.524Z,29.50
2022-08-16T09:02:54.687Z,29.60
2022-08-16T09:05:35.915Z,29.70
2022-08-16T09:08:09.067Z,29.80
2022-08-16T09:10:39.583Z,29.80
2022-08-16T09:13:08.678Z,29.90
2022-08-16T09:15:38.637Z,29.90
2022-08-16T09:18:26.459Z,29.90
2022-08-16T09:21:01.881Z,29.90
2022-08-16T09:23:40.552Z,29.80
2022-08-16T09:26:44.594Z,29.80
2022-08-16T09:29:15.290Z,29.80
2022-08-16T09:31:44.922Z,30.00
2022-08-16T09:34:18.662Z,30.20
2022-08-16T09:36:46.598Z,30.50
2022-08-16T09:39:16.259Z,30.80
2022-08-16T09:41:53.766Z,31.20
2022-08-16T09:45:12.276Z,31.30
2022-08-16T09:47:12.555Z,31.30
2022-08-16T09:49:41.073Z,31.60
2022-08-16T09:52:09.982Z,31.60
2022-08-16T09:54:38.119Z,31.60
2022-08-16T09:57:05.742Z,31.40
2022-08-16T09:59:38.715Z,31.20
2022-08-16T10:02:26.426Z,31.10
2022-08-16T10:04:57.295Z,30.80
2022-08-16T10:07:44.717Z,30.70
2022-08-16T10:10:18.880Z,30.50
2022-08-16T10:13:12.565Z,30.20
2022-08-16T10:15:43.649Z,29.90
2022-08-16T10:18:41.257Z,29.70
2022-08-16T10:21:09.582Z,29.50
2022-08-16T10:23:36.813Z,29.30
2022-08-16T10:27:17.437Z,29.10
2022-08-16T10:28:52.642Z,29.10
2022-08-16T10:31:45.494Z,29.10
2022-08-16T10:34:30.874Z,29.10
2022-08-16T10:36:54.455Z,29.10
2022-08-16T10:44:53.454Z,29.20
2022-08-16T10:47:22.445Z,29.30
2022-08-16T10:49:50.217Z,29.40
2022-08-16T10:52:20.005Z,29.50
2022-08-16T10:57:36.959Z,29.60
2022-08-16T11:00:21.342Z,29.50
2022-08-16T11:03:00.236Z,29.50
2022-08-16T11:08:31.329Z,29.20
2022-08-16T11:11:06.767Z,29.10
2022-08-16T11:17:02.289Z,28.90
2022-08-16T11:19:15.795Z,28.80
2022-08-16T11:24:42.759Z,28.70
2022-08-16T11:27:20.525Z,28.70
2022-08-16T11:29:52.149Z,28.60
2022-08-16T11:32:28.383Z,28.60
2022-08-16T11:35:11.031Z,28.70
2022-08-16T11:40:37.943Z,28.90
2022-08-16T11:43:06.696Z,29.00
2022-08-16T11:45:37.257Z,29.20
2022-08-16T11:48:05.461Z,29.20
2022-08-16T11:50:33.942Z,29.30
2022-08-16T11:53:03.754Z,29.50
2022-08-16T11:55:34.788Z,29.50
2022-08-16T11:58:08.565Z,29.70
2022-08-16T12:00:51.364Z,29.80
2022-08-16T12:03:25.042Z,30.10
2022-08-16T12:06:25.257Z,30.20
2022-08-16T12:09:00.826Z,30.40
2022-08-16T12:11:31.710Z,30.60
2022-08-16T12:14:04.673Z,30.60
2022-08-16T12:16:34.357Z,30.60
2022-08-16T12:19:10.363Z,30.70
2022-08-16T12:21:58.031Z,30.80
2022-08-16T12:24:29.451Z,30.90
2022-08-16T12:26:57.054Z,30.90
2022-08-16T12:29:29.405Z,30.90
2022-08-16T12:32:00.963Z,30.90
2022-08-16T12:34:50.887Z,31.10
2022-08-16T12:37:21.280Z,31.10
2022-08-16T12:39:56.850Z,31.30
2022-08-16T12:42:35.224Z,31.20
2022-08-16T12:45:09.543Z,31.10
2022-08-16T12:48:10.004Z,31.00
2022-08-16T12:50:35.487Z,30.90
2022-08-16T12:53:04.083Z,30.80
2022-08-16T12:55:33.592Z,30.70
2022-08-16T12:58:01.291Z,30.70
2022-08-16T13:00:33.617Z,30.70
2022-08-16T13:03:03.272Z,30.60
2022-08-16T13:07:59.072Z,30.40
2022-08-16T13:10:37.987Z,30.30
2022-08-16T13:29:40.184Z,30.10
2022-08-16T13:32:40.483Z,30.10
2022-08-16T13:34:59.055Z,30.00
2022-08-16T13:37:28.237Z,30.00
2022-08-16T13:42:32.057Z,29.90
2022-08-16T13:44:59.965Z,29.90
2022-08-16T13:47:30.348Z,29.90
2022-08-16T13:49:57.468Z,29.80
2022-08-16T13:52:25.448Z,29.70
2022-08-16T13:55:01.739Z,29.70
2022-08-16T13:57:53.037Z,29.70
2022-08-16T14:00:19.459Z,29.80
2022-08-16T14:02:48.604Z,29.80
2022-08-16T14:05:20.075Z,29.70
2022-08-16T14:07:52.555Z,29.70
2022-08-16T14:10:20.200Z,29.70
2022-08-16T14:12:48.380Z,29.70
2022-08-16T14:15:16.219Z,29.70
2022-08-16T14:18:23.254Z,29.60
2022-08-16T14:20:30.980Z,29.60
2022-08-16T14:22:58.392Z,29.60
2022-08-16T14:25:27.034Z,29.70
2022-08-16T14:27:55.018Z,29.60
2022-08-16T14:30:23.526Z,29.50
2022-08-16T14:32:51.771Z,29.60
2022-08-16T14:35:36.888Z,29.60
2022-08-16T14:38:18.578Z,29.60
2022-08-16T14:40:52.730Z,29.60
2022-08-16T14:43:23.912Z,29.60
2022-08-16T14:45:51.218Z,29.60
2022-08-16T14:48:26.247Z,29.50
2022-08-16T14:50:55.304Z,29.60
2022-08-16T14:53:23.399Z,29.60
2022-08-16T14:55:53.198Z,29.70
2022-08-16T14:58:34.719Z,29.80
2022-08-16T15:01:04.132Z,29.90
2022-08-16T15:03:32.066Z,30.10
2022-08-16T15:06:01.806Z,30.20
2022-08-16T15:08:36.216Z,30.30
2022-08-16T15:11:04.797Z,30.40
2022-08-16T15:13:31.946Z,30.50
2022-08-16T15:16:02.797Z,30.50
2022-08-16T15:18:32.414Z,30.50
2022-08-16T15:21:02.630Z,30.70
2022-08-16T15:23:34.007Z,30.80
2022-08-16T15:26:03.907Z,30.80
2022-08-16T15:28:33.725Z,30.60
2022-08-16T15:31:03.749Z,30.50
2022-08-16T15:33:34.563Z,30.40
2022-08-16T15:36:02.967Z,30.20
2022-08-16T15:38:57.736Z,30.10
2022-08-16T15:42:01.234Z,29.90
2022-08-16T15:44:44.684Z,29.80
2022-08-16T15:50:19.360Z,29.60
2022-08-16T15:52:46.699Z,29.50
2022-08-16T15:55:34.615Z,29.40
2022-08-16T16:00:51.945Z,29.30
2022-08-16T16:03:23.522Z,29.30
2022-08-16T16:05:54.195Z,29.20
2022-08-16T16:08:25.391Z,29.10
2022-08-16T16:10:55.381Z,29.00
2022-08-16T16:13:23.598Z,28.90
2022-08-16T16:16:00.814Z,28.90
2022-08-16T16:18:30.336Z,28.80
2022-08-16T16:21:03.643Z,28.80
2022-08-16T16:23:36.214Z,28.70
2022-08-16T16:26:16.890Z,28.60
2022-08-16T16:29:08.393Z,28.50
2022-08-16T16:31:37.366Z,28.40
2022-08-16T16:34:07.258Z,28.40
2022-08-16T16:36:37.442Z,28.40
2022-08-16T16:39:07.874Z,28.30
2022-08-16T16:41:37.364Z,28.20
2022-08-16T16:44:04.971Z,28.20
2022-08-16T16:46:42.752Z,28.20
2022-08-16T16:49:12.328Z,28.10
2022-08-16T16:51:44.468Z,28.20
2022-08-16T16:54:13.347Z,28.10
2022-08-16T16:56:50.335Z,28.10
2022-08-16T16:59:20.241Z,28.00
2022-08-16T17:01:57.406Z,28.00
2022-08-16T17:04:32.459Z,27.90
2022-08-16T17:07:02.060Z,27.90
2022-08-16T17:09:29.763Z,27.90
2022-08-16T17:11:58.413Z,27.90
2022-08-16T17:14:33.161Z,27.80
2022-08-16T17:17:08.715Z,27.80
2022-08-16T17:19:40.344Z,27.80
2022-08-16T17:22:32.961Z,27.80
2022-08-16T17:25:00.576Z,27.80
2022-08-16T17:27:33.791Z,27.70
2022-08-16T17:30:15.728Z,27.70
2022-08-16T17:32:48.705Z,27.70
2022-08-16T17:35:21.644Z,27.60
2022-08-16T17:37:51.613Z,27.60
2022-08-16T17:40:47.173Z,27.60
2022-08-16T17:43:13.498Z,27.60
2022-08-16T17:45:42.463Z,27.50
2022-08-16T17:48:09.723Z,27.50
2022-08-16T17:50:37.025Z,27.40
2022-08-16T17:53:05.583Z,27.40
2022-08-16T17:55:36.138Z,27.30
2022-08-16T17:58:09.618Z,27.30
2022-08-16T18:00:52.294Z,27.30
2022-08-16T18:04:06.404Z,27.20
2022-08-16T18:06:18.713Z,27.20
2022-08-16T18:08:48.602Z,27.10
2022-08-16T18:11:18.496Z,27.10
2022-08-16T18:13:47.074Z,27.00
2022-08-16T18:16:16.714Z,27.00
2022-08-16T18:18:46.977Z,27.00
2022-08-16T18:21:33.919Z,26.90
2022-08-16T18:24:00.970Z,26.90
2022-08-16T18:26:28.260Z,26.80
2022-08-16T18:28:55.794Z,26.70
2022-08-16T18:31:22.943Z,26.70
2022-08-16T18:33:54.640Z,26.60
2022-08-16T18:36:24.086Z,26.60
2022-08-16T18:38:52.414Z,26.50
2022-08-16T18:41:21.509Z,26.50
2022-08-16T18:44:24.040Z,26.40
2022-08-16T18:46:35.917Z,26.40
2022-08-16T18:49:03.259Z,26.40
2022-08-16T18:51:31.840Z,26.40
2022-08-16T18:53:59.177Z,26.40
2022-08-16T18:56:57.075Z,26.40
2022-08-16T18:59:13.489Z,26.40
2022-08-16T19:01:40.723Z,26.20
2022-08-16T19:04:57.186Z,26.20
2022-08-16T19:06:55.360Z,26.20
2022-08-16T19:09:22.436Z,26.10
2022-08-16T19:11:49.478Z,26.10
2022-08-16T19:14:16.647Z,26.10
2022-08-16T19:16:44.994Z,26.10
2022-08-16T19:19:12.052Z,26.00
2022-08-16T19:21:39.780Z,26.00
2022-08-16T19:24:07.031Z,26.10
2022-08-16T19:26:45.670Z,26.10
2022-08-16T19:29:13.526Z,26.10
2022-08-16T19:31:40.964Z,26.00
2022-08-16T19:34:08.807Z,26.10
2022-08-16T19:36:38.443Z,26.00
2022-08-16T19:39:15.712Z,26.00
2022-08-16T19:41:46.462Z,25.90
2022-08-16T19:44:21.059Z,25.90
2022-08-16T19:46:49.289Z,25.80
2022-08-16T19:49:17.172Z,25.70
2022-08-16T19:51:48.281Z,25.70
2022-08-16T19:54:15.393Z,25.70
2022-08-16T19:56:42.410Z,25.70
2022-08-16T19:59:19.372Z,25.70
2022-08-16T20:01:51.197Z,25.70
2022-08-16T20:04:18.732Z,25.70
2022-08-16T20:06:46.935Z,25.70
2022-08-16T20:09:18.003Z,25.70
2022-08-16T20:11:46.345Z,25.60
2022-08-16T20:14:25.392Z,25.50
2022-08-16T20:16:55.186Z,25.50
2022-08-16T20:19:22.212Z,25.40
2022-08-16T20:21:49.991Z,25.30
2022-08-16T20:24:33.608Z,25.30
2022-08-16T20:27:02.759Z,25.30
2022-08-16T20:29:29.739Z,25.20
2022-08-16T20:31:56.913Z,25.20
2022-08-16T20:34:23.997Z,25.20
2022-08-16T20:36:52.773Z,25.10
2022-08-16T20:39:20.804Z,25.10
2022-08-16T20:44:31.852Z,25.10
2022-08-16T20:46:59.037Z,25.10
2022-08-16T20:49:26.063Z,25.10
2022-08-16T20:57:10.643Z,25.00
2022-08-16T20:59:40.075Z,25.00
2022-08-16T21:03:38.204Z,24.90
2022-08-16T21:06:06.088Z,24.90
2022-08-16T21:08:51.619Z,24.80
2022-08-16T21:11:21.691Z,24.80
2022-08-16T21:13:49.007Z,24.80
2022-08-16T21:16:17.330Z,24.80
2022-08-16T21:18:44.365Z,24.80
2022-08-16T21:26:39.030Z,24.80
2022-08-16T21:29:07.845Z,24.80
2022-08-16T21:31:41.336Z,24.90
2022-08-16T21:34:08.941Z,24.80
2022-08-16T21:36:36.641Z,24.80
2022-08-16T21:39:07.429Z,24.80
2022-08-16T22:01:10.523Z,24.80
2022-08-16T22:03:37.962Z,24.80
2022-08-16T22:06:12.532Z,24.80
2022-08-16T22:08:50.261Z,24.70
2022-08-16T22:11:22.962Z,24.80
2022-08-16T22:13:57.408Z,24.70
2022-08-16T22:16:39.728Z,24.70
2022-08-16T22:19:06.790Z,24.70
2022-08-16T22:21:34.767Z,24.70
2022-08-16T22:24:02.031Z,24.60
2022-08-16T22:26:37.600Z,24.60
2022-08-16T22:29:10.628Z,24.60
2022-08-16T22:31:39.801Z,24.50
2022-08-16T22:34:08.015Z,24.50
2022-08-16T22:36:35.808Z,24.50
2022-08-16T22:39:07.047Z,24.40
2022-08-16T22:41:35.516Z,24.40
2022-08-16T22:44:04.650Z,24.40
2022-08-16T22:46:32.688Z,24.40
2022-08-16T22:48:59.874Z,24.40
2022-08-16T22:51:28.164Z,24.40
2022-08-16T22:53:56.951Z,24.30
2022-08-16T22:56:25.300Z,24.30
2022-08-16T22:58:52.839Z,24.30
2022-08-16T23:01:22.377Z,24.20
2022-08-16T23:03:50.216Z,24.20
2022-08-16T23:06:18.248Z,24.20
2022-08-16T23:08:45.345Z,24.10
2022-08-16T23:11:19.689Z,24.10
2022-08-16T23:13:53.102Z,24.10
2022-08-16T23:16:25.028Z,24.20
2022-08-16T23:19:01.225Z,24.10
2022-08-16T23:21:28.398Z,24.10
2022-08-16T23:23:55.626Z,24.20
2022-08-16T23:26:44.637Z,24.20
2022-08-16T23:29:15.655Z,24.20
2022-08-16T23:31:57.421Z,24.20
2022-08-16T23:34:27.299Z,24.10
2022-08-16T23:39:29.670Z,24.10
2022-08-16T23:41:57.391Z,24.10
2022-08-16T23:44:58.585Z,24.10
2022-08-16T23:47:11.937Z,24.10
2022-08-16T23:49:58.371Z,24.00
2022-08-16T23:52:39.430Z,24.00
2022-08-16T23:55:13.673Z,24.00
2022-08-16T23:57:43.664Z,24.00
